Clifton Springs, NY

12:51 AM EDT on September 28, 2016 (GMT -0400)
APRSWXNET | | Change Station

Elev 541 ft 43.01 °N, 77.12 °W | Updated 93 days ago

Clear
Clear
51 °F
Feels Like 51 °F
N
5
Wind Variable Wind from SSE
Gusts mph

Today
High -- | Low -- °F
--% Chance of Precip.
Yesterday
High -- | Low -- °F
Precip. -- in
Pressure 29.97 in
Visibility 10.0 miles
Clouds Clear
Dew Point 43 °F
Humidity 73%
Rainfall in
Snow Depth Not available.
7:02 AM 6:54 PM
Waning Crescent, 8% visible
METAR KPEO 280353Z AUTO 00000KT 10SM CLR 09/06 A2997 RMK AO2 SLP147 T00940061
Pressure 29.97 in
Visibility 10.0 miles
Clouds Clear
Dew Point 43 °F
Humidity 73%
Rainfall in
Snow Depth Not available.
7:02 AM 6:54 PM
Waning Crescent, 8% visible
METAR KPEO 280353Z AUTO 00000KT 10SM CLR 09/06 A2997 RMK AO2 SLP147 T00940061

10-Day Weather Forecast

Almanac

Astronomy

Sep. 28, 2016 Rise Set
Actual Time
Civil Twilight
Nautical Twilight
Astronomical Twilight
Moon
Length of Visible Light
Length of Day
Tomorrow will be .
, % of the Moon is Illuminated

Today's Extremes

State Highs State Lows

Community

WunderPhotos

Upload Photos

1,942,209 photos uploaded!

WunderBlog® & News

Nearby

Air Quality

  Air Quality AQ Index Pollutant
Not available.

Snow Depth

Station Depth Elevation

Earthquake Activity

City Distance Mag. Time & Date
Minimum magnitude displayed is 2.5.

Coastal Water Temperatures

Place Temperature

Stations

Nearby Weather Stations

Station Location Temp. Windchill Dew Point Humidity Wind Precip. Elev Updated Type
                   

Watches & Warnings

There are currently no watches in effect.